createdAt,value
2017-07-23T00:00:53.471Z,20.57
2017-07-23T00:03:21.137Z,20.58
2017-07-23T00:05:48.814Z,20.56
2017-07-23T00:08:16.547Z,20.54
2017-07-23T00:10:44.278Z,20.55
2017-07-23T00:13:11.932Z,20.54
2017-07-23T00:15:39.555Z,20.55
2017-07-23T00:18:07.200Z,20.55
2017-07-23T00:20:34.886Z,20.50
2017-07-23T00:23:02.521Z,20.49
2017-07-23T00:25:30.179Z,20.46
2017-07-23T00:27:57.829Z,20.47
2017-07-23T00:30:25.447Z,20.46
2017-07-23T00:32:53.097Z,20.44
2017-07-23T00:35:20.762Z,20.41
2017-07-23T00:37:48.412Z,20.38
2017-07-23T00:40:16.132Z,20.39
2017-07-23T00:42:43.807Z,20.37
2017-07-23T00:45:11.460Z,20.38
2017-07-23T00:47:39.080Z,20.41
2017-07-23T00:50:06.741Z,20.39
2017-07-23T00:52:34.371Z,20.36
2017-07-23T00:55:02.021Z,20.34
2017-07-23T00:57:29.663Z,20.34
2017-07-23T00:59:57.323Z,20.31
2017-07-23T01:02:24.973Z,20.29
2017-07-23T01:04:52.613Z,20.29
2017-07-23T01:07:20.228Z,20.27
2017-07-23T01:09:47.871Z,20.27
2017-07-23T01:12:15.482Z,20.20
2017-07-23T01:14:43.116Z,20.19
2017-07-23T01:17:10.751Z,20.23
2017-07-23T01:19:38.391Z,20.28
2017-07-23T01:22:06.004Z,20.33
2017-07-23T01:24:33.762Z,20.39
2017-07-23T01:27:01.439Z,20.44
2017-07-23T01:29:29.091Z,20.49
2017-07-23T01:31:56.694Z,20.55
2017-07-23T01:34:24.362Z,20.59
2017-07-23T01:36:51.985Z,20.61
2017-07-23T01:39:19.635Z,20.61
2017-07-23T01:41:47.263Z,20.61
2017-07-23T01:44:14.899Z,20.60
2017-07-23T01:46:42.622Z,20.53
2017-07-23T01:49:10.274Z,20.46
2017-07-23T01:51:37.922Z,20.37
2017-07-23T01:54:05.606Z,20.24
2017-07-23T01:56:33.224Z,20.10
2017-07-23T01:59:00.907Z,20.04
2017-07-23T02:01:28.697Z,19.97
2017-07-23T02:03:56.327Z,19.89
2017-07-23T02:06:23.985Z,19.80
2017-07-23T02:08:51.649Z,19.72
2017-07-23T02:11:19.306Z,19.71
2017-07-23T02:13:47.317Z,19.73
2017-07-23T02:16:14.943Z,19.71
2017-07-23T02:18:42.572Z,19.69
2017-07-23T02:21:10.230Z,19.67
2017-07-23T02:23:37.868Z,19.63
2017-07-23T02:26:05.517Z,19.55
2017-07-23T02:28:33.144Z,19.46
2017-07-23T02:31:00.792Z,19.44
2017-07-23T02:33:28.434Z,19.37
2017-07-23T02:35:56.142Z,19.33
2017-07-23T02:38:23.837Z,19.30
2017-07-23T02:40:51.605Z,19.28
2017-07-23T02:43:19.414Z,19.24
2017-07-23T02:45:47.148Z,19.24
2017-07-23T02:48:14.823Z,19.22
2017-07-23T02:50:42.540Z,19.18
2017-07-23T02:53:10.288Z,19.14
2017-07-23T02:55:39.017Z,19.12
2017-07-23T02:58:06.706Z,19.10
2017-07-23T03:00:34.386Z,19.11
2017-07-23T03:03:02.060Z,19.12
2017-07-23T03:05:29.762Z,19.14
2017-07-23T03:07:57.399Z,19.18
2017-07-23T03:10:25.067Z,19.18
2017-07-23T03:12:52.694Z,19.14
2017-07-23T03:15:20.354Z,19.13
2017-07-23T03:17:47.999Z,19.15
2017-07-23T03:20:15.669Z,19.20
2017-07-23T03:22:43.297Z,19.20
2017-07-23T03:25:10.982Z,19.17
2017-07-23T03:27:38.606Z,19.13
2017-07-23T03:30:06.293Z,19.09
2017-07-23T03:32:33.965Z,19.05
2017-07-23T03:35:01.637Z,19.06
2017-07-23T03:37:29.316Z,19.05
2017-07-23T03:39:57.007Z,19.08
2017-07-23T03:42:24.637Z,19.10
2017-07-23T03:44:52.579Z,19.02
2017-07-23T03:47:20.225Z,18.96
2017-07-23T03:49:47.920Z,18.94
2017-07-23T03:52:15.578Z,18.90
2017-07-23T03:54:43.230Z,18.87
2017-07-23T03:57:10.885Z,18.84
2017-07-23T03:59:38.507Z,18.82
2017-07-23T04:02:06.161Z,18.77
2017-07-23T04:04:33.813Z,18.74
2017-07-23T04:07:01.508Z,18.71
2017-07-23T04:09:29.182Z,18.67
2017-07-23T04:11:56.856Z,18.68
2017-07-23T04:14:24.507Z,18.66
2017-07-23T04:16:52.264Z,18.61
2017-07-23T04:19:19.888Z,18.52
2017-07-23T04:21:47.532Z,18.53
2017-07-23T04:24:15.217Z,18.53
2017-07-23T04:26:42.867Z,18.53
2017-07-23T04:29:10.496Z,18.56
2017-07-23T04:31:38.185Z,18.59
2017-07-23T04:34:05.848Z,18.55
2017-07-23T04:36:33.535Z,18.54
2017-07-23T04:39:01.163Z,18.52
2017-07-23T04:41:28.826Z,18.50
2017-07-23T04:43:56.465Z,18.49
2017-07-23T04:46:24.123Z,18.49
2017-07-23T04:48:51.745Z,18.51
2017-07-23T04:51:19.469Z,18.58
2017-07-23T04:53:47.089Z,18.66
2017-07-23T04:56:14.727Z,18.70
2017-07-23T04:58:42.531Z,18.77
2017-07-23T05:01:10.182Z,18.81
2017-07-23T05:03:37.807Z,18.85
2017-07-23T05:06:05.447Z,18.91
2017-07-23T05:08:33.068Z,18.96
2017-07-23T05:11:00.717Z,19.04
2017-07-23T05:13:28.345Z,19.16
2017-07-23T05:15:55.954Z,19.25
2017-07-23T05:18:23.626Z,19.25
2017-07-23T05:20:51.270Z,19.26
2017-07-23T05:23:18.919Z,19.30
2017-07-23T05:25:46.539Z,19.37
2017-07-23T05:28:14.216Z,19.47
2017-07-23T05:30:41.814Z,19.48
2017-07-23T05:33:09.454Z,19.52
2017-07-23T05:35:37.074Z,19.54
2017-07-23T05:38:04.808Z,19.53
2017-07-23T05:40:32.472Z,19.51
2017-07-23T05:43:00.127Z,19.60
2017-07-23T05:45:27.739Z,19.63
2017-07-23T05:47:55.373Z,19.72
2017-07-23T05:50:22.971Z,19.81
2017-07-23T05:52:50.913Z,19.90
2017-07-23T05:55:18.662Z,19.96
2017-07-23T05:57:46.308Z,20.04
2017-07-23T06:00:13.952Z,19.99
2017-07-23T06:02:41.657Z,19.92
2017-07-23T06:05:09.299Z,19.85
2017-07-23T06:07:37.004Z,19.82
2017-07-23T06:10:04.622Z,19.79
2017-07-23T06:12:32.254Z,19.81
2017-07-23T06:14:59.879Z,19.79
2017-07-23T06:17:27.912Z,19.78
2017-07-23T06:19:55.598Z,19.78
2017-07-23T06:22:23.222Z,19.78
2017-07-23T06:24:50.869Z,19.74
2017-07-23T06:27:18.506Z,19.74
2017-07-23T06:29:46.123Z,19.70
2017-07-23T06:32:13.757Z,19.68
2017-07-23T06:34:41.419Z,19.64
2017-07-23T06:37:09.046Z,19.62
2017-07-23T06:39:37.061Z,19.58
2017-07-23T06:42:04.714Z,19.60
2017-07-23T06:44:32.329Z,19.59
2017-07-23T06:46:59.983Z,19.58
2017-07-23T06:49:27.603Z,19.57
2017-07-23T06:51:55.521Z,19.59
2017-07-23T06:54:23.139Z,19.70
2017-07-23T06:56:50.782Z,19.76
2017-07-23T06:59:18.522Z,19.77
2017-07-23T07:01:46.190Z,19.84
2017-07-23T07:04:13.837Z,19.89
2017-07-23T07:06:41.463Z,19.99
2017-07-23T07:09:09.088Z,20.01
2017-07-23T07:11:36.813Z,20.10
2017-07-23T07:14:04.516Z,20.19
2017-07-23T07:16:32.230Z,20.27
2017-07-23T07:19:00.283Z,20.38
2017-07-23T07:21:27.899Z,20.47
2017-07-23T07:23:56.486Z,20.54
2017-07-23T07:26:24.175Z,20.57
2017-07-23T07:28:51.806Z,20.63
2017-07-23T07:31:19.447Z,20.74
2017-07-23T07:33:47.086Z,20.89
2017-07-23T07:36:15.267Z,20.98
2017-07-23T07:38:42.878Z,21.02
2017-07-23T07:41:10.560Z,21.00
2017-07-23T07:43:38.203Z,20.97
2017-07-23T07:46:05.826Z,20.96
2017-07-23T07:48:33.751Z,20.98
2017-07-23T07:51:01.505Z,20.96
2017-07-23T07:53:29.151Z,20.98
2017-07-23T07:55:56.807Z,21.04
2017-07-23T07:58:24.436Z,21.11
2017-07-23T08:00:52.107Z,21.13
2017-07-23T08:03:19.710Z,21.23
2017-07-23T08:05:47.431Z,21.31
2017-07-23T08:08:15.032Z,21.41
2017-07-23T08:10:42.950Z,21.49
2017-07-23T08:13:10.592Z,21.61
2017-07-23T08:15:38.239Z,21.64
2017-07-23T08:18:05.923Z,21.61
2017-07-23T08:20:33.577Z,21.55
2017-07-23T08:23:01.251Z,21.49
2017-07-23T08:25:28.921Z,21.45
2017-07-23T08:27:56.913Z,21.40
2017-07-23T08:30:24.636Z,21.37
2017-07-23T08:32:52.254Z,21.49
2017-07-23T08:35:19.933Z,21.68
2017-07-23T08:37:47.563Z,21.92
2017-07-23T08:40:15.227Z,22.20
2017-07-23T08:42:42.850Z,22.36
2017-07-23T08:45:10.520Z,22.40
2017-07-23T08:47:38.334Z,22.41
2017-07-23T08:50:06.016Z,22.49
2017-07-23T08:52:33.692Z,22.53
2017-07-23T08:55:01.380Z,22.53
2017-07-23T08:57:29.016Z,22.57
2017-07-23T08:59:56.675Z,22.60
2017-07-23T09:02:24.332Z,22.61
2017-07-23T09:04:51.963Z,22.58
2017-07-23T09:07:19.603Z,22.69
2017-07-23T09:09:47.319Z,22.72
2017-07-23T09:12:15.306Z,22.79
2017-07-23T09:14:42.936Z,22.95
2017-07-23T09:17:10.598Z,23.23
2017-07-23T09:19:38.229Z,23.58
2017-07-23T09:22:05.859Z,23.78
2017-07-23T09:24:33.493Z,23.87
2017-07-23T09:27:01.136Z,23.96
2017-07-23T09:29:29.077Z,23.94
2017-07-23T09:31:56.698Z,23.87
2017-07-23T09:34:24.352Z,23.89
2017-07-23T09:36:52.026Z,23.88
2017-07-23T09:39:19.721Z,23.83
2017-07-23T09:41:47.412Z,23.80
2017-07-23T09:44:15.046Z,23.82
2017-07-23T09:46:42.689Z,23.75
2017-07-23T09:49:10.368Z,23.62
2017-07-23T09:51:39.245Z,23.49
2017-07-23T09:54:06.882Z,23.40
2017-07-23T09:56:34.541Z,23.38
2017-07-23T09:59:02.194Z,23.40
2017-07-23T10:01:29.834Z,23.46
2017-07-23T10:03:57.452Z,23.63
2017-07-23T10:06:25.159Z,23.82
2017-07-23T10:08:53.035Z,23.85
2017-07-23T10:11:21.172Z,23.92
2017-07-23T10:13:48.817Z,23.93
2017-07-23T10:16:16.634Z,24.02
2017-07-23T10:18:44.792Z,24.16
2017-07-23T10:21:12.448Z,24.06
2017-07-23T10:23:40.071Z,23.97
2017-07-23T10:26:07.735Z,23.87
2017-07-23T10:28:35.393Z,23.87
2017-07-23T10:31:03.039Z,23.97
2017-07-23T10:33:30.664Z,24.15
2017-07-23T10:35:58.333Z,24.27
2017-07-23T10:38:26.493Z,24.40
2017-07-23T10:40:54.125Z,24.32
2017-07-23T10:43:21.778Z,24.31
2017-07-23T10:45:49.430Z,24.36
2017-07-23T10:48:17.122Z,24.40
2017-07-23T10:50:44.794Z,24.24
2017-07-23T10:53:12.435Z,24.29
2017-07-23T10:55:40.075Z,24.31
2017-07-23T10:58:10.035Z,24.02
2017-07-23T11:00:37.787Z,23.97
2017-07-23T11:03:05.462Z,24.20
2017-07-23T11:05:33.119Z,24.45
2017-07-23T11:08:01.278Z,24.64
2017-07-23T11:10:28.938Z,24.58
2017-07-23T11:12:56.586Z,24.65
2017-07-23T11:15:24.248Z,24.68
2017-07-23T11:17:52.040Z,24.84
2017-07-23T11:20:20.932Z,24.80
2017-07-23T11:22:50.001Z,24.66
2017-07-23T11:25:17.657Z,24.58
2017-07-23T11:27:45.311Z,24.72
2017-07-23T11:30:12.948Z,24.85
2017-07-23T11:32:40.630Z,24.79
2017-07-23T11:35:08.343Z,24.79
2017-07-23T11:37:36.010Z,24.86
2017-07-23T11:40:03.745Z,24.88
2017-07-23T11:42:31.394Z,24.78
2017-07-23T11:44:59.031Z,24.71
2017-07-23T11:47:26.734Z,24.68
2017-07-23T11:49:54.382Z,24.65
2017-07-23T11:52:22.035Z,24.64
2017-07-23T11:54:49.788Z,24.52
2017-07-23T11:57:18.744Z,24.61
2017-07-23T11:59:46.827Z,24.80
2017-07-23T12:02:14.512Z,25.14
2017-07-23T12:04:42.144Z,25.32
2017-07-23T12:07:09.849Z,25.19
2017-07-23T12:09:37.704Z,25.04
2017-07-23T12:12:05.404Z,24.94
2017-07-23T12:14:33.398Z,24.91
2017-07-23T12:17:01.172Z,25.02
2017-07-23T12:19:28.783Z,25.22
2017-07-23T12:21:56.585Z,25.49
2017-07-23T12:24:24.242Z,25.71
2017-07-23T12:26:52.248Z,25.72
2017-07-23T12:29:19.980Z,25.65
2017-07-23T12:31:47.682Z,25.66
2017-07-23T12:34:15.546Z,25.64
2017-07-23T12:36:43.325Z,25.76
2017-07-23T12:39:10.989Z,25.83
2017-07-23T12:41:38.678Z,25.82
2017-07-23T12:44:06.330Z,25.79
2017-07-23T12:46:33.995Z,25.67
2017-07-23T12:49:01.638Z,25.67
2017-07-23T12:51:29.338Z,25.79
2017-07-23T12:53:57.062Z,25.86
2017-07-23T12:56:24.720Z,25.87
2017-07-23T12:58:53.822Z,25.84
2017-07-23T13:01:21.467Z,25.91
2017-07-23T13:03:49.204Z,25.84
2017-07-23T13:06:16.859Z,25.75
2017-07-23T13:08:44.819Z,25.72
2017-07-23T13:13:46.578Z,25.56
2017-07-23T13:16:14.208Z,25.60
2017-07-23T13:18:42.257Z,25.65
2017-07-23T13:21:09.926Z,25.58
2017-07-23T13:23:37.535Z,25.55
2017-07-23T13:26:05.165Z,25.43
2017-07-23T13:28:32.786Z,25.42
2017-07-23T13:31:00.516Z,25.60
2017-07-23T13:33:28.118Z,25.71
2017-07-23T13:35:55.763Z,25.74
2017-07-23T13:38:23.420Z,25.72
2017-07-23T13:40:51.534Z,25.70
2017-07-23T13:43:19.221Z,25.66
2017-07-23T13:45:47.180Z,25.61
2017-07-23T13:48:14.820Z,25.57
2017-07-23T13:50:42.486Z,25.37
2017-07-23T13:53:10.227Z,25.16
2017-07-23T13:55:37.888Z,25.24
2017-07-23T13:58:05.541Z,25.33
2017-07-23T14:00:33.181Z,25.46
2017-07-23T14:03:00.985Z,25.55
2017-07-23T14:05:28.645Z,25.53
2017-07-23T14:07:56.271Z,25.46
2017-07-23T14:10:23.941Z,25.52
2017-07-23T14:12:51.871Z,25.54
2017-07-23T14:15:19.534Z,25.73
2017-07-23T14:17:47.194Z,25.99
2017-07-23T14:20:15.488Z,26.13
2017-07-23T14:22:43.108Z,26.18
2017-07-23T14:25:10.763Z,26.13
2017-07-23T14:27:38.399Z,25.80
2017-07-23T14:30:06.034Z,25.71
2017-07-23T14:32:33.660Z,25.62
2017-07-23T14:35:01.699Z,25.48
2017-07-23T14:37:29.294Z,25.44
2017-07-23T14:39:56.947Z,25.40
2017-07-23T14:42:24.611Z,25.42
2017-07-23T14:44:52.260Z,25.43
2017-07-23T14:47:19.892Z,25.43
2017-07-23T14:49:47.568Z,25.29
2017-07-23T14:52:15.245Z,25.23
2017-07-23T14:54:42.864Z,25.10
2017-07-23T14:57:10.773Z,25.02
2017-07-23T14:59:38.392Z,24.86
2017-07-23T15:02:06.043Z,24.90
2017-07-23T15:04:33.672Z,24.96
2017-07-23T15:07:01.438Z,25.10
2017-07-23T15:09:29.361Z,25.30
2017-07-23T15:11:57.123Z,25.39
2017-07-23T15:14:24.754Z,25.37
2017-07-23T15:16:52.428Z,25.20
2017-07-23T15:19:20.076Z,25.12
2017-07-23T15:21:48.047Z,25.09
2017-07-23T15:24:15.689Z,24.98
2017-07-23T15:26:43.313Z,24.84
2017-07-23T15:29:11.351Z,24.72
2017-07-23T15:31:39.292Z,24.75
2017-07-23T15:34:06.948Z,24.92
2017-07-23T15:36:34.777Z,25.05
2017-07-23T15:39:02.437Z,25.15
2017-07-23T15:41:30.063Z,25.25
2017-07-23T15:43:58.298Z,25.29
2017-07-23T15:46:25.943Z,25.22
2017-07-23T15:48:53.551Z,25.16
2017-07-23T15:51:21.175Z,24.98
2017-07-23T15:53:48.803Z,25.01
2017-07-23T15:56:16.464Z,25.07
2017-07-23T15:58:44.099Z,25.08
2017-07-23T16:01:11.768Z,25.06
2017-07-23T16:03:39.410Z,24.95
2017-07-23T16:06:07.101Z,24.97
2017-07-23T16:08:34.735Z,24.92
2017-07-23T16:11:02.418Z,24.73
2017-07-23T16:13:30.053Z,24.51
2017-07-23T16:15:57.770Z,24.40
2017-07-23T16:18:25.414Z,24.29
2017-07-23T16:20:53.410Z,24.15
2017-07-23T16:23:21.057Z,24.09
2017-07-23T16:25:48.708Z,24.34
2017-07-23T16:28:16.333Z,24.48
2017-07-23T16:30:44.006Z,24.58
2017-07-23T16:33:11.616Z,24.54
2017-07-23T16:35:39.290Z,24.46
2017-07-23T16:38:06.997Z,24.37
2017-07-23T16:40:35.591Z,24.19
2017-07-23T16:43:03.237Z,24.03
2017-07-23T16:45:31.119Z,23.87
2017-07-23T16:47:58.788Z,23.80
2017-07-23T16:50:26.557Z,23.85
2017-07-23T16:52:54.420Z,23.86
2017-07-23T16:55:22.044Z,23.86
2017-07-23T16:57:49.699Z,23.81
2017-07-23T17:00:17.477Z,23.75
2017-07-23T17:02:45.149Z,23.76
2017-07-23T17:05:13.423Z,23.77
2017-07-23T17:07:41.064Z,23.83
2017-07-23T17:10:08.672Z,23.82
2017-07-23T17:12:37.241Z,23.78
2017-07-23T17:15:04.842Z,23.73
2017-07-23T17:17:32.983Z,23.63
2017-07-23T17:20:00.737Z,23.58
2017-07-23T17:22:28.411Z,23.51
2017-07-23T17:24:56.067Z,23.48
2017-07-23T17:27:23.740Z,23.39
2017-07-23T17:29:51.370Z,23.30
2017-07-23T17:32:19.039Z,23.23
2017-07-23T17:34:46.832Z,23.17
2017-07-23T17:37:14.491Z,23.11
2017-07-23T17:39:42.236Z,23.13
2017-07-23T17:42:09.899Z,23.14
2017-07-23T17:44:37.562Z,23.11
2017-07-23T17:47:05.254Z,23.04
2017-07-23T17:49:32.913Z,22.98
2017-07-23T17:52:00.574Z,22.94
2017-07-23T17:54:28.209Z,22.93
2017-07-23T17:56:55.877Z,22.91
2017-07-23T17:59:23.589Z,22.89
2017-07-23T18:01:51.932Z,22.85
2017-07-23T18:04:19.558Z,22.84
2017-07-23T18:06:47.240Z,22.80
2017-07-23T18:09:14.860Z,22.77
2017-07-23T18:11:42.535Z,22.72
2017-07-23T18:14:10.181Z,22.68
2017-07-23T18:16:37.805Z,22.67
2017-07-23T18:19:05.572Z,22.65
2017-07-23T18:21:33.220Z,22.63
2017-07-23T18:24:00.973Z,22.61
2017-07-23T18:26:28.604Z,22.57
2017-07-23T18:28:56.234Z,22.53
2017-07-23T18:31:23.852Z,22.49
2017-07-23T18:33:51.546Z,22.46
2017-07-23T18:36:19.181Z,22.41
2017-07-23T18:38:47.122Z,22.40
2017-07-23T18:41:14.828Z,22.37
2017-07-23T18:43:42.564Z,22.34
2017-07-23T18:46:10.268Z,22.30
2017-07-23T18:48:37.928Z,22.25
2017-07-23T18:51:05.571Z,22.22
2017-07-23T18:53:33.192Z,22.20
2017-07-23T18:56:01.379Z,22.18
2017-07-23T18:58:29.007Z,22.17
2017-07-23T19:00:56.614Z,22.13
2017-07-23T19:03:24.268Z,22.10
2017-07-23T19:05:52.187Z,22.07
2017-07-23T19:08:19.827Z,21.98
2017-07-23T19:10:47.476Z,21.90
2017-07-23T19:13:15.515Z,21.77
2017-07-23T19:15:43.149Z,21.64
2017-07-23T19:18:10.811Z,21.51
2017-07-23T19:20:38.462Z,21.39
2017-07-23T19:23:06.100Z,21.28
2017-07-23T19:25:33.753Z,21.21
2017-07-23T19:28:01.420Z,21.15
2017-07-23T19:30:29.084Z,21.09
2017-07-23T19:32:56.705Z,21.07
2017-07-23T19:35:24.470Z,21.04
2017-07-23T19:37:52.104Z,21.02
2017-07-23T19:40:20.137Z,20.98
2017-07-23T19:42:47.816Z,20.95
2017-07-23T19:45:15.447Z,20.93
2017-07-23T19:47:43.086Z,20.89
2017-07-23T19:50:10.712Z,20.83
2017-07-23T19:52:38.353Z,20.74
2017-07-23T19:55:06.169Z,20.71
2017-07-23T19:57:34.112Z,20.70
2017-07-23T20:00:01.746Z,20.67
2017-07-23T20:02:29.436Z,20.67
2017-07-23T20:04:57.122Z,20.66
2017-07-23T20:07:24.720Z,20.62
2017-07-23T20:09:52.463Z,20.52
2017-07-23T20:12:20.248Z,20.37
2017-07-23T20:14:48.159Z,20.28
2017-07-23T20:17:15.850Z,20.24
2017-07-23T20:19:43.529Z,20.13
2017-07-23T20:22:11.212Z,20.07
2017-07-23T20:24:39.011Z,20.04
2017-07-23T20:27:06.675Z,20.02
2017-07-23T20:29:34.510Z,20.03
2017-07-23T20:32:02.170Z,20.00
2017-07-23T20:34:29.812Z,19.94
2017-07-23T20:36:57.439Z,19.90
2017-07-23T20:39:25.411Z,19.85
2017-07-23T20:41:53.029Z,19.78
2017-07-23T20:44:20.679Z,19.71
2017-07-23T20:46:48.329Z,19.71
2017-07-23T20:49:15.998Z,19.71
2017-07-23T20:51:45.006Z,19.70
2017-07-23T20:54:12.681Z,19.72
2017-07-23T20:56:40.621Z,19.72
2017-07-23T20:59:08.238Z,19.71
2017-07-23T21:01:35.865Z,19.70
2017-07-23T21:04:03.560Z,19.71
2017-07-23T21:06:31.227Z,19.72
2017-07-23T21:08:58.869Z,19.71
2017-07-23T21:11:26.517Z,19.66
2017-07-23T21:13:54.257Z,19.60
2017-07-23T21:16:21.947Z,19.60
2017-07-23T21:18:49.596Z,19.59
2017-07-23T21:21:17.326Z,19.60
2017-07-23T21:23:44.955Z,19.59
2017-07-23T21:26:12.862Z,19.61
2017-07-23T21:28:40.621Z,19.62
2017-07-23T21:31:08.217Z,19.65
2017-07-23T21:33:35.898Z,19.67
2017-07-23T21:36:03.585Z,19.66
2017-07-23T21:38:31.246Z,19.64
2017-07-23T21:40:58.901Z,19.63
2017-07-23T21:43:26.533Z,19.60
2017-07-23T21:45:54.199Z,19.60
2017-07-23T21:48:22.097Z,19.60
2017-07-23T21:50:49.894Z,19.61
2017-07-23T21:53:17.488Z,19.50
2017-07-23T21:55:45.190Z,19.49
2017-07-23T21:58:12.860Z,19.53
2017-07-23T22:00:40.854Z,19.54
2017-07-23T22:03:08.476Z,19.58
2017-07-23T22:05:36.075Z,19.58
2017-07-23T22:08:03.742Z,19.59
2017-07-23T22:10:31.367Z,19.61
2017-07-23T22:12:59.003Z,19.61
2017-07-23T22:15:26.627Z,19.61
2017-07-23T22:17:54.636Z,19.60
2017-07-23T22:20:22.256Z,19.62
2017-07-23T22:22:50.019Z,19.61
2017-07-23T22:25:17.695Z,19.62
2017-07-23T22:27:45.332Z,19.60
2017-07-23T22:30:12.969Z,19.58
2017-07-23T22:32:40.609Z,19.54
2017-07-23T22:35:08.296Z,19.52
2017-07-23T22:37:36.021Z,19.47
2017-07-23T22:40:03.650Z,19.42
2017-07-23T22:42:31.446Z,19.37
2017-07-23T22:44:59.079Z,19.35
2017-07-23T22:47:27.005Z,19.38
2017-07-23T22:49:54.649Z,19.39
2017-07-23T22:52:22.295Z,19.38
2017-07-23T22:54:50.048Z,19.39
2017-07-23T22:57:17.676Z,19.31
2017-07-23T22:59:45.318Z,19.24
2017-07-23T23:02:12.991Z,19.21
2017-07-23T23:04:40.901Z,19.14
2017-07-23T23:07:08.532Z,19.05
2017-07-23T23:09:36.338Z,19.03
2017-07-23T23:12:04.061Z,19.08
2017-07-23T23:14:31.729Z,19.08
2017-07-23T23:16:59.392Z,19.08
2017-07-23T23:19:27.047Z,19.09
2017-07-23T23:21:54.665Z,19.07
2017-07-23T23:24:22.460Z,19.03
2017-07-23T23:26:50.303Z,19.06
2017-07-23T23:29:17.958Z,19.07
2017-07-23T23:31:45.589Z,19.09
2017-07-23T23:34:13.221Z,19.10
2017-07-23T23:36:40.885Z,19.09
2017-07-23T23:39:08.882Z,19.08
2017-07-23T23:41:36.517Z,19.09
2017-07-23T23:44:04.160Z,19.09
2017-07-23T23:46:31.898Z,19.07
2017-07-23T23:48:59.667Z,19.05
2017-07-23T23:51:27.327Z,19.07
2017-07-23T23:53:54.951Z,19.03
2017-07-23T23:56:22.598Z,19.02
2017-07-23T23:58:50.225Z,18.99
